75°F Temp
66°F Dewpoint
% Humidity
Temperature
8 MPH
13 KM/H
7 KTS
50°
North East

Wind Speed
Clear
Conditions
Pressure 1020.62 (hPa) - 30.14 (in)
Visibility 10.0 (mi) - 16.1 (km)

Current Conditions
KEQY
Location 15.55km (9.66mi)
Metar :KEQY 251153Z AUTO 05007KT 10SM CLR 24/19 A3014 RMK AO2 SLP203 T02440189 10244 20200 51019
Sat 25th May 07:53 am

Airport
  Metar Aviation API Data Provided by https://www.checkwx.com/ CSS/SVG/PHP scripts by weather34.com © 2015-2019